createdAt,value
2018-01-03T00:02:27.348Z,90.00
2018-01-03T00:04:55.652Z,90.10
2018-01-03T00:07:23.227Z,90.10
2018-01-03T00:09:51.580Z,90.10
2018-01-03T00:12:19.906Z,90.00
2018-01-03T00:14:47.466Z,90.00
2018-01-03T00:17:17.047Z,90.00
2018-01-03T00:19:45.219Z,90.00
2018-01-03T00:22:12.813Z,90.00
2018-01-03T00:24:40.423Z,90.00
2018-01-03T00:27:09.567Z,90.00
2018-01-03T00:29:37.143Z,90.00
2018-01-03T00:32:05.407Z,90.00
2018-01-03T00:34:33.005Z,89.80
2018-01-03T00:37:00.557Z,90.00
2018-01-03T00:39:28.150Z,90.00
2018-01-03T00:41:55.715Z,89.90
2018-01-03T00:44:23.308Z,90.00
2018-01-03T00:46:50.948Z,90.00
2018-01-03T00:49:18.598Z,90.10
2018-01-03T00:51:46.326Z,90.10
2018-01-03T00:54:13.906Z,90.10
2018-01-03T00:56:41.482Z,90.10
2018-01-03T00:59:09.851Z,90.20
2018-01-03T01:01:37.391Z,90.10
2018-01-03T01:04:05.031Z,90.20
2018-01-03T01:06:33.311Z,90.20
2018-01-03T01:09:04.253Z,90.40
2018-01-03T01:11:31.853Z,90.40
2018-01-03T01:13:59.403Z,90.40
2018-01-03T01:16:27.035Z,90.50
2018-01-03T01:18:56.383Z,90.50
2018-01-03T01:21:24.711Z,90.50
2018-01-03T01:23:52.264Z,90.40
2018-01-03T01:26:20.580Z,90.50
2018-01-03T01:28:52.513Z,90.50
2018-01-03T01:31:20.102Z,90.40
2018-01-03T01:33:47.754Z,90.50
2018-01-03T01:36:15.358Z,90.50
2018-01-03T01:38:42.947Z,90.50
2018-01-03T01:41:10.517Z,90.60
2018-01-03T01:43:38.999Z,90.50
2018-01-03T01:46:07.547Z,90.40
2018-01-03T01:48:35.116Z,90.50
2018-01-03T01:51:03.513Z,90.50
2018-01-03T01:53:32.747Z,90.40
2018-01-03T01:56:00.298Z,90.40
2018-01-03T01:58:27.952Z,90.50
2018-01-03T02:00:55.610Z,90.50
2018-01-03T02:03:23.240Z,90.60
2018-01-03T02:05:50.828Z,90.60
2018-01-03T02:08:21.146Z,90.60
2018-01-03T02:10:49.514Z,90.60
2018-01-03T02:13:17.111Z,90.60
2018-01-03T02:15:44.728Z,90.70
2018-01-03T02:18:12.332Z,90.60
2018-01-03T02:20:40.657Z,90.00
2018-01-03T02:23:08.239Z,90.00
2018-01-03T02:25:35.871Z,89.90
2018-01-03T02:28:04.453Z,89.90
2018-01-03T02:30:32.865Z,89.90
2018-01-03T02:33:01.421Z,90.00
2018-01-03T02:35:28.969Z,89.90
2018-01-03T02:38:02.009Z,90.00
2018-01-03T02:40:31.020Z,90.00
2018-01-03T02:42:59.806Z,90.10
2018-01-03T02:45:27.407Z,90.10
2018-01-03T02:47:58.451Z,90.20
2018-01-03T02:50:26.150Z,90.10
2018-01-03T02:52:53.762Z,90.20
2018-01-03T02:55:21.305Z,90.20
2018-01-03T02:57:58.688Z,90.10
2018-01-03T03:00:26.345Z,90.10
2018-01-03T03:02:54.316Z,90.10
2018-01-03T03:05:21.940Z,90.20
2018-01-03T03:07:53.271Z,90.10
2018-01-03T03:10:20.909Z,90.20
2018-01-03T03:12:48.531Z,90.20
2018-01-03T03:15:16.215Z,90.20
2018-01-03T03:17:43.787Z,90.00
2018-01-03T03:20:11.327Z,89.70
2018-01-03T03:22:38.950Z,89.10
2018-01-03T03:25:06.542Z,87.50
2018-01-03T03:27:34.114Z,84.80
2018-01-03T03:30:01.758Z,82.40
2018-01-03T03:32:29.298Z,81.60
2018-01-03T03:34:57.470Z,82.40
2018-01-03T03:37:27.112Z,81.20
2018-01-03T03:39:54.658Z,81.50
2018-01-03T03:42:22.250Z,82.20
2018-01-03T03:44:49.802Z,81.60
2018-01-03T03:47:17.500Z,81.50
2018-01-03T03:49:45.154Z,80.90
2018-01-03T03:52:13.552Z,80.30
2018-01-03T03:54:41.902Z,79.90
2018-01-03T03:57:09.507Z,79.80
2018-01-03T03:59:37.080Z,79.60
2018-01-03T04:02:05.563Z,79.40
2018-01-03T04:04:33.225Z,79.90
2018-01-03T04:07:00.797Z,78.10
2018-01-03T04:09:28.375Z,78.00
2018-01-03T04:11:56.006Z,77.90
2018-01-03T04:14:23.542Z,77.50
2018-01-03T04:16:51.172Z,77.30
2018-01-03T04:19:18.794Z,76.50
2018-01-03T04:21:47.616Z,75.40
2018-01-03T04:24:15.176Z,75.40
2018-01-03T04:26:43.044Z,75.80
2018-01-03T04:29:10.670Z,75.30
2018-01-03T04:31:39.694Z,73.90
2018-01-03T04:34:07.405Z,73.90
2018-01-03T04:36:35.864Z,74.60
2018-01-03T04:39:10.826Z,74.60
2018-01-03T04:41:38.393Z,74.90
2018-01-03T04:44:06.763Z,74.10
2018-01-03T04:46:34.361Z,74.10
2018-01-03T04:49:02.029Z,74.10
2018-01-03T04:51:29.803Z,74.60
2018-01-03T04:53:57.396Z,74.70
2018-01-03T04:56:25.051Z,74.30
2018-01-03T04:58:56.647Z,74.30
2018-01-03T05:01:24.276Z,74.80
2018-01-03T05:03:52.550Z,74.30
2018-01-03T05:06:20.141Z,74.30
2018-01-03T05:08:55.318Z,72.70
2018-01-03T05:11:23.130Z,72.70
2018-01-03T05:13:50.740Z,72.30
2018-01-03T05:16:18.366Z,72.30
2018-01-03T05:21:41.754Z,71.30
2018-01-03T05:24:09.341Z,70.40
2018-01-03T05:26:37.407Z,70.60
2018-01-03T05:29:05.035Z,68.80
2018-01-03T05:31:32.639Z,69.10
2018-01-03T05:34:01.015Z,69.20
2018-01-03T05:36:28.643Z,69.10
2018-01-03T05:38:58.257Z,68.80
2018-01-03T05:41:25.859Z,68.60
2018-01-03T05:43:55.087Z,70.70
2018-01-03T05:46:23.218Z,70.70
2018-01-03T05:48:51.106Z,70.90
2018-01-03T05:51:19.428Z,70.30
2018-01-03T05:53:47.028Z,71.20
2018-01-03T05:56:14.646Z,70.80
2018-01-03T05:58:56.015Z,70.50
2018-01-03T06:01:23.610Z,67.80
2018-01-03T06:03:52.038Z,68.80
2018-01-03T06:06:20.464Z,67.80
2018-01-03T06:08:49.993Z,67.80
2018-01-03T06:11:17.525Z,66.90
2018-01-03T06:13:45.266Z,66.40
2018-01-03T06:16:13.677Z,63.00
2018-01-03T06:18:42.937Z,62.80
2018-01-03T06:21:11.350Z,62.40
2018-01-03T06:23:38.959Z,62.40
2018-01-03T06:26:06.530Z,60.30
2018-01-03T06:28:34.112Z,61.30
2018-01-03T06:31:01.708Z,61.30
2018-01-03T06:33:29.869Z,61.20
2018-01-03T06:35:57.442Z,61.00
2018-01-03T06:38:31.753Z,61.20
2018-01-03T06:40:59.528Z,61.50
2018-01-03T06:43:27.780Z,61.80
2018-01-03T06:45:55.422Z,62.50
2018-01-03T06:48:23.240Z,63.30
2018-01-03T06:50:51.067Z,65.00
2018-01-03T06:53:19.406Z,67.90
2018-01-03T06:55:47.955Z,67.90
2018-01-03T06:58:15.979Z,68.70
2018-01-03T07:00:43.581Z,71.90
2018-01-03T07:03:12.709Z,72.80
2018-01-03T07:05:40.327Z,72.70
2018-01-03T07:08:12.304Z,75.40
2018-01-03T07:10:39.892Z,75.30
2018-01-03T07:13:07.498Z,75.60
2018-01-03T07:15:35.103Z,75.80
2018-01-03T07:18:05.530Z,74.90
2018-01-03T07:20:33.132Z,74.90
2018-01-03T07:23:00.704Z,74.40
2018-01-03T07:25:28.291Z,74.40
2018-01-03T07:27:55.872Z,74.10
2018-01-03T07:30:24.199Z,73.20
2018-01-03T07:32:51.886Z,73.10
2018-01-03T07:35:19.829Z,72.30
2018-01-03T07:37:53.209Z,72.60
2018-01-03T07:40:20.857Z,72.80
2018-01-03T07:42:48.822Z,72.70
2018-01-03T07:45:16.390Z,72.70
2018-01-03T07:47:45.073Z,72.70
2018-01-03T07:50:14.427Z,72.80
2018-01-03T07:52:42.055Z,72.70
2018-01-03T07:55:09.680Z,73.30
2018-01-03T07:57:39.205Z,73.20
2018-01-03T08:00:08.864Z,73.70
2018-01-03T08:02:36.452Z,74.00
2018-01-03T08:05:04.424Z,74.30
2018-01-03T08:07:32.064Z,74.10
2018-01-03T08:09:59.712Z,74.30
2018-01-03T08:12:27.298Z,74.50
2018-01-03T08:14:55.991Z,74.60
2018-01-03T08:17:23.625Z,74.10
2018-01-03T08:19:52.125Z,73.70
2018-01-03T08:22:19.745Z,73.30
2018-01-03T08:24:47.355Z,72.80
2018-01-03T08:27:15.004Z,72.10
2018-01-03T08:29:42.574Z,72.30
2018-01-03T08:32:10.846Z,70.80
2018-01-03T08:34:38.529Z,70.20
2018-01-03T08:37:07.058Z,69.80
2018-01-03T08:39:35.016Z,69.20
2018-01-03T08:42:03.460Z,68.40
2018-01-03T08:44:32.156Z,68.80
2018-01-03T08:47:00.534Z,68.90
2018-01-03T08:49:28.317Z,67.80
2018-01-03T08:51:56.746Z,66.40
2018-01-03T08:54:24.514Z,66.30
2018-01-03T08:56:52.083Z,65.60
2018-01-03T08:59:19.685Z,65.90
2018-01-03T09:01:47.297Z,65.40
2018-01-03T09:04:15.043Z,65.40
2018-01-03T09:06:42.907Z,64.30
2018-01-03T09:09:18.315Z,64.60
2018-01-03T09:11:46.006Z,64.60
2018-01-03T09:14:13.608Z,65.00
2018-01-03T09:16:41.260Z,65.30
2018-01-03T09:19:16.588Z,64.20
2018-01-03T09:21:45.572Z,63.80
2018-01-03T09:24:13.998Z,63.70
2018-01-03T09:26:42.152Z,63.50
2018-01-03T09:29:09.744Z,63.70
2018-01-03T09:31:37.407Z,63.50
2018-01-03T09:34:04.986Z,63.90
2018-01-03T09:36:32.616Z,64.80
2018-01-03T09:39:18.972Z,65.10
2018-01-03T09:41:46.679Z,64.50
2018-01-03T09:44:15.083Z,65.40
2018-01-03T09:46:42.649Z,64.70
2018-01-03T09:49:13.559Z,64.00
2018-01-03T09:51:41.247Z,64.60
2018-01-03T09:54:08.814Z,65.90
2018-01-03T09:56:36.418Z,66.40
2018-01-03T09:59:15.295Z,68.00
2018-01-03T10:01:42.943Z,67.80
2018-01-03T10:04:10.571Z,69.90
2018-01-03T10:06:38.237Z,71.40
2018-01-03T10:09:18.928Z,72.00
2018-01-03T10:11:46.671Z,72.00
2018-01-03T10:14:14.260Z,72.80
2018-01-03T10:16:41.877Z,74.40
2018-01-03T10:19:10.775Z,74.60
2018-01-03T10:21:38.734Z,75.20
2018-01-03T10:24:06.873Z,75.50
2018-01-03T10:26:34.515Z,76.20
2018-01-03T10:29:07.463Z,77.50
2018-01-03T10:31:35.806Z,77.50
2018-01-03T10:34:03.977Z,77.80
2018-01-03T10:36:31.906Z,77.90
2018-01-03T10:39:02.490Z,78.70
2018-01-03T10:41:30.254Z,78.80
2018-01-03T10:43:58.682Z,78.80
2018-01-03T10:46:26.564Z,78.40
2018-01-03T10:48:54.200Z,78.90
2018-01-03T10:51:21.850Z,79.00
2018-01-03T10:53:49.520Z,79.40
2018-01-03T10:56:17.622Z,78.80
2018-01-03T10:58:46.287Z,78.60
2018-01-03T11:01:13.944Z,78.50
2018-01-03T11:03:41.502Z,78.40
2018-01-03T11:06:09.085Z,78.80
2018-01-03T11:08:49.310Z,78.30
2018-01-03T11:11:17.291Z,78.30
2018-01-03T11:13:45.583Z,77.40
2018-01-03T11:16:13.193Z,78.40
2018-01-03T11:18:47.451Z,79.00
2018-01-03T11:21:15.112Z,79.40
2018-01-03T11:23:42.828Z,79.00
2018-01-03T11:26:11.558Z,79.40
2018-01-03T11:28:43.504Z,80.10
2018-01-03T11:31:11.196Z,79.60
2018-01-03T11:33:38.774Z,79.50
2018-01-03T11:36:06.484Z,78.90
2018-01-03T11:38:41.842Z,78.10
2018-01-03T11:41:09.560Z,77.60
2018-01-03T11:43:38.292Z,77.50
2018-01-03T11:46:05.865Z,75.90
2018-01-03T11:48:45.376Z,75.00
2018-01-03T11:51:13.700Z,74.40
2018-01-03T11:53:42.135Z,74.50
2018-01-03T11:56:10.623Z,73.50
2018-01-03T11:58:39.099Z,72.80
2018-01-03T12:01:07.297Z,72.70
2018-01-03T12:03:35.168Z,73.10
2018-01-03T12:06:02.771Z,72.50
2018-01-03T12:08:32.492Z,72.60
2018-01-03T12:11:00.966Z,72.30
2018-01-03T12:13:28.526Z,72.20
2018-01-03T12:15:56.108Z,72.60
2018-01-03T12:18:26.260Z,72.10
2018-01-03T12:20:53.970Z,71.50
2018-01-03T12:23:22.047Z,71.60
2018-01-03T12:25:50.366Z,71.60
2018-01-03T12:28:38.287Z,71.20
2018-01-03T12:31:06.018Z,71.20
2018-01-03T12:33:33.761Z,70.90
2018-01-03T12:36:01.632Z,71.80
2018-01-03T12:38:31.366Z,71.30
2018-01-03T12:40:59.819Z,71.40
2018-01-03T12:43:28.253Z,71.20
2018-01-03T12:45:55.812Z,71.10
2018-01-03T12:48:23.638Z,71.80
2018-01-03T12:50:51.226Z,70.90
2018-01-03T12:53:18.915Z,70.90
2018-01-03T12:55:46.720Z,70.20
2018-01-03T12:58:21.468Z,70.20
2018-01-03T13:00:49.057Z,70.30
2018-01-03T13:03:16.642Z,70.70
2018-01-03T13:05:45.406Z,70.20
2018-01-03T13:08:13.242Z,69.70
2018-01-03T13:10:40.886Z,70.20
2018-01-03T13:13:08.442Z,69.90
2018-01-03T13:15:36.177Z,71.20
2018-01-03T13:18:05.357Z,70.70
2018-01-03T13:20:34.720Z,70.70
2018-01-03T13:23:02.408Z,70.50
2018-01-03T13:25:30.056Z,69.60
2018-01-03T13:28:14.553Z,70.60
2018-01-03T13:30:42.229Z,70.80
2018-01-03T13:33:09.857Z,70.30
2018-01-03T13:35:38.308Z,71.40
2018-01-03T13:38:10.116Z,74.00
2018-01-03T13:40:37.774Z,73.60
2018-01-03T13:43:05.370Z,74.20
2018-01-03T13:45:33.068Z,73.40
2018-01-03T13:48:00.761Z,73.10
2018-01-03T13:50:29.332Z,72.80
2018-01-03T13:52:57.720Z,76.20
2018-01-03T13:55:25.884Z,76.10
2018-01-03T13:57:54.396Z,76.30
2018-01-03T14:00:22.581Z,76.90
2018-01-03T14:02:50.708Z,79.00
2018-01-03T14:05:19.206Z,79.00
2018-01-03T14:07:49.739Z,80.30
2018-01-03T14:10:17.393Z,80.20
2018-01-03T14:12:50.980Z,79.00
2018-01-03T14:15:19.809Z,79.00
2018-01-03T14:17:48.472Z,78.80
2018-01-03T14:20:16.660Z,77.80
2018-01-03T14:22:44.419Z,76.80
2018-01-03T14:25:12.386Z,75.80
2018-01-03T14:27:40.803Z,75.20
2018-01-03T14:30:09.886Z,74.60
2018-01-03T14:32:38.154Z,73.80
2018-01-03T14:35:06.783Z,73.70
2018-01-03T14:37:35.403Z,73.50
2018-01-03T14:40:03.047Z,73.20
2018-01-03T14:42:30.834Z,73.40
2018-01-03T14:44:59.107Z,75.00
2018-01-03T14:47:30.559Z,76.60
2018-01-03T14:49:58.827Z,77.60
2018-01-03T14:52:27.299Z,78.50
2018-01-03T14:54:55.167Z,79.00
2018-01-03T14:57:26.562Z,79.70
2018-01-03T14:59:56.124Z,79.40
2018-01-03T15:02:24.530Z,77.70
2018-01-03T15:04:52.277Z,76.80
2018-01-03T15:07:25.323Z,75.70
2018-01-03T15:09:53.710Z,75.70
2018-01-03T15:12:22.517Z,76.00
2018-01-03T15:14:51.119Z,75.30
2018-01-03T15:17:27.702Z,74.60
2018-01-03T15:19:55.265Z,74.20
2018-01-03T15:22:22.832Z,74.60
2018-01-03T15:24:50.471Z,73.10
2018-01-03T15:27:19.111Z,72.90
2018-01-03T15:29:46.787Z,72.70
2018-01-03T15:32:14.624Z,72.80
2018-01-03T15:34:42.457Z,72.90
2018-01-03T15:37:10.029Z,71.80
2018-01-03T15:39:37.627Z,71.40
2018-01-03T15:42:05.273Z,71.70
2018-01-03T15:44:32.958Z,72.30
2018-01-03T15:47:02.441Z,76.60
2018-01-03T15:49:30.070Z,76.60
2018-01-03T15:51:59.210Z,76.20
2018-01-03T15:54:26.882Z,76.50
2018-01-03T15:56:55.512Z,75.40
2018-01-03T15:59:23.120Z,74.00
2018-01-03T16:01:50.713Z,73.00
2018-01-03T16:04:19.154Z,72.50
2018-01-03T16:06:46.792Z,72.50
2018-01-03T16:09:15.392Z,71.70
2018-01-03T16:11:43.251Z,70.70
2018-01-03T16:14:10.822Z,71.20
2018-01-03T16:16:38.527Z,70.20
2018-01-03T16:19:06.941Z,72.40
2018-01-03T16:21:34.618Z,71.60
2018-01-03T16:24:02.191Z,74.30
2018-01-03T16:26:29.790Z,75.60
2018-01-03T16:28:57.450Z,77.40
2018-01-03T16:31:25.104Z,78.00
2018-01-03T16:33:52.708Z,77.40
2018-01-03T16:36:20.345Z,77.70
2018-01-03T16:38:48.073Z,77.20
2018-01-03T16:41:15.669Z,76.30
2018-01-03T16:43:43.347Z,74.60
2018-01-03T16:46:12.344Z,74.00
2018-01-03T16:48:55.551Z,73.80
2018-01-03T16:54:30.407Z,73.50
2018-01-03T16:56:58.092Z,73.30
2018-01-03T16:59:26.511Z,72.20
2018-01-03T17:01:54.143Z,72.20
2018-01-03T17:04:21.908Z,71.70
2018-01-03T17:06:49.644Z,71.30
2018-01-03T17:09:18.272Z,71.70
2018-01-03T17:11:45.980Z,71.20
2018-01-03T17:14:14.604Z,70.40
2018-01-03T17:16:42.969Z,70.30
2018-01-03T17:19:10.620Z,70.20
2018-01-03T17:21:38.245Z,69.30
2018-01-03T17:24:05.836Z,71.40
2018-01-03T17:26:34.046Z,70.20
2018-01-03T17:29:02.534Z,70.50
2018-01-03T17:31:30.137Z,70.40
2018-01-03T17:33:58.425Z,70.20
2018-01-03T17:36:28.063Z,70.10
2018-01-03T17:39:01.586Z,70.10
2018-01-03T17:41:30.016Z,70.70
2018-01-03T17:43:57.600Z,70.70
2018-01-03T17:46:25.306Z,71.10
2018-01-03T17:48:56.630Z,70.50
2018-01-03T17:51:25.027Z,70.50
2018-01-03T17:53:53.213Z,71.50
2018-01-03T17:56:20.788Z,71.00
2018-01-03T17:58:49.184Z,70.70
2018-01-03T18:01:16.790Z,69.60
2018-01-03T18:03:45.188Z,69.70
2018-01-03T18:06:13.589Z,69.80
2018-01-03T18:08:52.895Z,69.80
2018-01-03T18:11:21.731Z,69.80
2018-01-03T18:13:50.250Z,69.70
2018-01-03T18:16:17.869Z,69.80
2018-01-03T18:18:48.160Z,69.70
2018-01-03T18:21:15.740Z,70.20
2018-01-03T18:23:46.071Z,70.00
2018-01-03T18:26:13.840Z,70.00
2018-01-03T18:28:42.376Z,70.40
2018-01-03T18:31:11.196Z,70.20
2018-01-03T18:33:39.736Z,69.50
2018-01-03T18:36:07.373Z,69.40
2018-01-03T18:38:37.171Z,69.70
2018-01-03T18:41:05.558Z,68.90
2018-01-03T18:43:33.820Z,68.80
2018-01-03T18:46:02.890Z,68.60
2018-01-03T18:48:30.523Z,69.00
2018-01-03T18:50:58.183Z,68.70
2018-01-03T18:53:25.757Z,68.90
2018-01-03T18:55:53.507Z,68.90
2018-01-03T18:58:21.208Z,68.90
2018-01-03T19:00:48.923Z,68.90
2018-01-03T19:03:16.619Z,69.00
2018-01-03T19:05:45.663Z,69.40
2018-01-03T19:08:13.455Z,68.20
2018-01-03T19:10:41.911Z,68.10
2018-01-03T19:13:10.325Z,69.10
2018-01-03T19:15:38.526Z,69.00
2018-01-03T19:18:07.230Z,69.10
2018-01-03T19:20:34.831Z,69.30
2018-01-03T19:23:02.576Z,69.80
2018-01-03T19:25:31.364Z,70.70
2018-01-03T19:28:02.316Z,71.50
2018-01-03T19:30:30.797Z,71.20
2018-01-03T19:32:59.822Z,73.50
2018-01-03T19:35:30.322Z,73.50
2018-01-03T19:37:58.096Z,74.40
2018-01-03T19:40:26.080Z,74.60
2018-01-03T19:42:53.864Z,75.20
2018-01-03T19:45:22.328Z,75.70
2018-01-03T19:47:50.096Z,75.80
2018-01-03T19:50:19.916Z,75.40
2018-01-03T19:52:49.768Z,76.50
2018-01-03T19:55:18.669Z,77.40
2018-01-03T19:57:46.729Z,77.40
2018-01-03T20:00:14.725Z,76.70
2018-01-03T20:02:43.874Z,77.20
2018-01-03T20:05:11.921Z,77.20
2018-01-03T20:07:43.263Z,77.70
2018-01-03T20:10:11.330Z,78.10
2018-01-03T20:12:39.183Z,78.30
2018-01-03T20:15:08.221Z,78.10
2018-01-03T20:17:36.861Z,78.10
2018-01-03T20:20:05.783Z,77.60
2018-01-03T20:22:33.480Z,77.50
2018-01-03T20:25:05.568Z,76.70
2018-01-03T20:27:36.244Z,76.30
2018-01-03T20:30:04.893Z,76.00
2018-01-03T20:32:33.317Z,74.50
2018-01-03T20:35:01.740Z,74.30
2018-01-03T20:37:30.085Z,74.20
2018-01-03T20:39:59.555Z,74.40
2018-01-03T20:42:28.487Z,74.60
2018-01-03T20:44:56.221Z,74.50
2018-01-03T20:47:23.834Z,74.70
2018-01-03T20:49:51.886Z,74.30
2018-01-03T20:52:20.289Z,74.30
2018-01-03T20:54:48.023Z,73.70
2018-01-03T20:57:15.765Z,74.20
2018-01-03T20:59:43.931Z,74.20
2018-01-03T21:02:11.725Z,73.70
2018-01-03T21:04:39.800Z,73.20
2018-01-03T21:07:07.587Z,72.80
2018-01-03T21:09:35.909Z,73.10
2018-01-03T21:12:04.296Z,72.80
2018-01-03T21:14:32.268Z,71.80
2018-01-03T21:17:00.906Z,73.10
2018-01-03T21:19:28.722Z,72.80
2018-01-03T21:21:56.567Z,71.80
2018-01-03T21:24:24.758Z,72.20
2018-01-03T21:26:52.636Z,72.70
2018-01-03T21:29:20.941Z,72.50
2018-01-03T21:31:48.532Z,72.40
2018-01-03T21:34:16.179Z,72.40
2018-01-03T21:36:43.791Z,72.40
2018-01-03T21:39:11.600Z,72.80
2018-01-03T21:41:42.635Z,72.90
2018-01-03T21:44:10.375Z,73.00
2018-01-03T21:46:38.284Z,72.30
2018-01-03T21:49:09.496Z,72.80
2018-01-03T21:51:37.174Z,73.10
2018-01-03T21:54:04.760Z,73.10
2018-01-03T21:56:32.456Z,73.00
2018-01-03T21:59:00.336Z,72.40
2018-01-03T22:01:27.944Z,73.40
2018-01-03T22:03:55.552Z,73.00
2018-01-03T22:06:23.273Z,74.00
2018-01-03T22:08:52.725Z,72.60
2018-01-03T22:11:20.485Z,72.50
2018-01-03T22:13:48.973Z,72.50
2018-01-03T22:16:16.707Z,72.50
2018-01-03T22:18:45.351Z,72.10
2018-01-03T22:21:12.955Z,72.60
2018-01-03T22:23:40.611Z,72.50
2018-01-03T22:26:08.314Z,72.70
2018-01-03T22:28:35.915Z,72.80
2018-01-03T22:31:03.650Z,73.10
2018-01-03T22:33:31.228Z,72.80
2018-01-03T22:35:58.880Z,73.20
2018-01-03T22:38:26.502Z,72.80
2018-01-03T22:40:54.142Z,72.70
2018-01-03T22:43:21.776Z,72.90
2018-01-03T22:45:49.389Z,73.50
2018-01-03T22:48:21.447Z,73.40
2018-01-03T22:50:49.020Z,73.10
2018-01-03T22:53:16.589Z,73.20
2018-01-03T22:55:44.177Z,73.30
2018-01-03T22:58:12.713Z,73.40
2018-01-03T23:00:40.287Z,73.80
2018-01-03T23:03:08.301Z,73.70
2018-01-03T23:05:36.680Z,74.10
2018-01-03T23:08:04.306Z,74.10
2018-01-03T23:10:31.877Z,74.30
2018-01-03T23:13:00.250Z,75.20
2018-01-03T23:15:27.806Z,75.20
2018-01-03T23:17:55.374Z,75.50
2018-01-03T23:20:23.532Z,75.40
2018-01-03T23:22:51.100Z,76.10
2018-01-03T23:25:18.673Z,76.10
2018-01-03T23:27:46.387Z,76.20
2018-01-03T23:30:13.961Z,76.60
2018-01-03T23:32:41.565Z,77.30
2018-01-03T23:35:09.135Z,76.30
2018-01-03T23:37:41.277Z,77.00
2018-01-03T23:40:09.367Z,77.00
2018-01-03T23:42:37.031Z,77.10
2018-01-03T23:45:05.484Z,76.60
2018-01-03T23:47:34.064Z,76.10
2018-01-03T23:50:01.658Z,75.70
2018-01-03T23:52:29.972Z,75.20
2018-01-03T23:54:57.564Z,75.00
2018-01-03T23:57:26.490Z,76.50
2018-01-03T23:59:55.148Z,75.80
